sensor_id;sensor_type;location;lat;lon;timestamp;P1;durP1;ratioP1;P2;durP2;ratioP2
4106;SDS011;21906;50.812;7.132;2024-02-21T00:02:18;9.30;;;5.57;;
4106;SDS011;21906;50.812;7.132;2024-02-21T00:04:43;9.70;;;5.30;;
4106;SDS011;21906;50.812;7.132;2024-02-21T00:07:09;10.33;;;5.33;;
4106;SDS011;21906;50.812;7.132;2024-02-21T00:09:35;10.83;;;5.40;;
4106;SDS011;21906;50.812;7.132;2024-02-21T00:12:01;7.97;;;5.20;;
4106;SDS011;21906;50.812;7.132;2024-02-21T00:14:26;10.57;;;5.67;;
4106;SDS011;21906;50.812;7.132;2024-02-21T00:16:52;7.27;;;5.00;;
4106;SDS011;21906;50.812;7.132;2024-02-21T00:19:18;9.23;;;5.50;;
4106;SDS011;21906;50.812;7.132;2024-02-21T00:21:43;11.70;;;5.80;;
4106;SDS011;21906;50.812;7.132;2024-02-21T00:24:09;10.83;;;5.80;;
4106;SDS011;21906;50.812;7.132;2024-02-21T00:26:35;10.63;;;6.30;;
4106;SDS011;21906;50.812;7.132;2024-02-21T00:29:00;7.70;;;5.73;;
4106;SDS011;21906;50.812;7.132;2024-02-21T00:31:26;7.63;;;5.43;;
4106;SDS011;21906;50.812;7.132;2024-02-21T00:33:52;8.40;;;5.27;;
4106;SDS011;21906;50.812;7.132;2024-02-21T00:36:18;8.00;;;5.50;;
4106;SDS011;21906;50.812;7.132;2024-02-21T00:38:43;6.30;;;4.60;;
4106;SDS011;21906;50.812;7.132;2024-02-21T00:41:09;10.30;;;5.80;;
4106;SDS011;21906;50.812;7.132;2024-02-21T00:43:35;7.50;;;4.93;;
4106;SDS011;21906;50.812;7.132;2024-02-21T00:46:01;7.93;;;4.90;;
4106;SDS011;21906;50.812;7.132;2024-02-21T00:48:26;9.23;;;5.33;;
4106;SDS011;21906;50.812;7.132;2024-02-21T00:50:52;7.27;;;5.10;;
4106;SDS011;21906;50.812;7.132;2024-02-21T00:53:18;9.00;;;4.70;;
4106;SDS011;21906;50.812;7.132;2024-02-21T00:55:44;6.20;;;4.67;;
4106;SDS011;21906;50.812;7.132;2024-02-21T00:58:09;12.20;;;5.23;;
4106;SDS011;21906;50.812;7.132;2024-02-21T01:00:35;10.63;;;5.37;;
4106;SDS011;21906;50.812;7.132;2024-02-21T01:03:01;8.27;;;5.30;;
4106;SDS011;21906;50.812;7.132;2024-02-21T01:05:27;9.30;;;4.63;;
4106;SDS011;21906;50.812;7.132;2024-02-21T01:07:54;8.80;;;4.43;;
4106;SDS011;21906;50.812;7.132;2024-02-21T01:10:19;8.10;;;5.37;;
4106;SDS011;21906;50.812;7.132;2024-02-21T01:12:45;5.70;;;4.47;;
4106;SDS011;21906;50.812;7.132;2024-02-21T01:15:11;6.87;;;4.83;;
4106;SDS011;21906;50.812;7.132;2024-02-21T01:17:37;8.03;;;4.67;;
4106;SDS011;21906;50.812;7.132;2024-02-21T01:20:03;7.23;;;4.27;;
4106;SDS011;21906;50.812;7.132;2024-02-21T01:22:30;12.50;;;4.73;;
4106;SDS011;21906;50.812;7.132;2024-02-21T01:24:56;5.07;;;4.37;;
4106;SDS011;21906;50.812;7.132;2024-02-21T01:27:22;7.30;;;4.53;;
4106;SDS011;21906;50.812;7.132;2024-02-21T01:29:47;8.00;;;4.70;;
4106;SDS011;21906;50.812;7.132;2024-02-21T01:32:14;6.13;;;4.03;;
4106;SDS011;21906;50.812;7.132;2024-02-21T01:34:40;7.50;;;4.53;;
4106;SDS011;21906;50.812;7.132;2024-02-21T01:37:06;6.90;;;5.03;;
4106;SDS011;21906;50.812;7.132;2024-02-21T01:39:32;4.73;;;4.00;;
4106;SDS011;21906;50.812;7.132;2024-02-21T01:41:58;6.60;;;4.53;;
4106;SDS011;21906;50.812;7.132;2024-02-21T01:44:24;8.27;;;4.70;;
4106;SDS011;21906;50.812;7.132;2024-02-21T01:46:50;5.80;;;4.43;;
4106;SDS011;21906;50.812;7.132;2024-02-21T01:49:23;9.70;;;5.47;;
4106;SDS011;21906;50.812;7.132;2024-02-21T01:51:49;7.50;;;4.70;;
4106;SDS011;21906;50.812;7.132;2024-02-21T01:54:16;8.00;;;4.47;;
4106;SDS011;21906;50.812;7.132;2024-02-21T01:56:43;7.17;;;4.07;;
4106;SDS011;21906;50.812;7.132;2024-02-21T01:59:11;9.23;;;4.97;;
4106;SDS011;21906;50.812;7.132;2024-02-21T02:01:39;5.13;;;4.60;;
4106;SDS011;21906;50.812;7.132;2024-02-21T02:04:05;8.53;;;4.40;;
4106;SDS011;21906;50.812;7.132;2024-02-21T02:06:32;9.00;;;4.63;;
4106;SDS011;21906;50.812;7.132;2024-02-21T02:08:57;10.20;;;4.67;;
4106;SDS011;21906;50.812;7.132;2024-02-21T02:11:23;9.27;;;4.90;;
4106;SDS011;21906;50.812;7.132;2024-02-21T02:13:49;8.80;;;4.27;;
4106;SDS011;21906;50.812;7.132;2024-02-21T02:16:14;6.80;;;4.47;;
4106;SDS011;21906;50.812;7.132;2024-02-21T02:18:40;7.57;;;4.70;;
4106;SDS011;21906;50.812;7.132;2024-02-21T02:21:22;5.83;;;4.10;;
4106;SDS011;21906;50.812;7.132;2024-02-21T02:23:53;6.60;;;4.00;;
4106;SDS011;21906;50.812;7.132;2024-02-21T02:26:19;9.73;;;4.90;;
4106;SDS011;21906;50.812;7.132;2024-02-21T02:28:45;5.20;;;4.60;;
4106;SDS011;21906;50.812;7.132;2024-02-21T02:31:10;8.47;;;4.40;;
4106;SDS011;21906;50.812;7.132;2024-02-21T02:33:36;6.80;;;4.23;;
4106;SDS011;21906;50.812;7.132;2024-02-21T02:36:02;7.20;;;4.30;;
4106;SDS011;21906;50.812;7.132;2024-02-21T02:38:31;6.70;;;4.70;;
4106;SDS011;21906;50.812;7.132;2024-02-21T02:40:57;5.67;;;4.10;;
4106;SDS011;21906;50.812;7.132;2024-02-21T02:43:22;8.27;;;4.87;;
4106;SDS011;21906;50.812;7.132;2024-02-21T02:45:48;11.97;;;4.77;;
4106;SDS011;21906;50.812;7.132;2024-02-21T02:48:13;7.43;;;4.50;;
4106;SDS011;21906;50.812;7.132;2024-02-21T02:50:39;5.17;;;3.83;;
4106;SDS011;21906;50.812;7.132;2024-02-21T02:53:05;9.50;;;4.30;;
4106;SDS011;21906;50.812;7.132;2024-02-21T02:55:30;5.40;;;3.97;;
4106;SDS011;21906;50.812;7.132;2024-02-21T02:57:56;6.07;;;4.30;;
4106;SDS011;21906;50.812;7.132;2024-02-21T03:00:23;7.70;;;4.63;;
4106;SDS011;21906;50.812;7.132;2024-02-21T03:02:49;4.57;;;3.73;;
4106;SDS011;21906;50.812;7.132;2024-02-21T03:05:15;8.07;;;4.47;;
4106;SDS011;21906;50.812;7.132;2024-02-21T03:07:43;7.43;;;4.57;;
4106;SDS011;21906;50.812;7.132;2024-02-21T03:10:09;6.70;;;4.40;;
4106;SDS011;21906;50.812;7.132;2024-02-21T03:12:35;10.20;;;4.53;;
4106;SDS011;21906;50.812;7.132;2024-02-21T03:15:01;9.70;;;4.40;;
4106;SDS011;21906;50.812;7.132;2024-02-21T03:17:27;7.37;;;4.17;;
4106;SDS011;21906;50.812;7.132;2024-02-21T03:19:53;9.47;;;4.30;;
4106;SDS011;21906;50.812;7.132;2024-02-21T03:22:20;8.90;;;4.37;;
4106;SDS011;21906;50.812;7.132;2024-02-21T03:24:46;6.77;;;4.17;;
4106;SDS011;21906;50.812;7.132;2024-02-21T03:27:12;6.47;;;4.13;;
4106;SDS011;21906;50.812;7.132;2024-02-21T03:29:37;6.20;;;4.47;;
4106;SDS011;21906;50.812;7.132;2024-02-21T03:32:03;8.20;;;4.90;;
4106;SDS011;21906;50.812;7.132;2024-02-21T03:34:29;7.20;;;4.57;;
4106;SDS011;21906;50.812;7.132;2024-02-21T03:36:54;7.00;;;4.00;;
4106;SDS011;21906;50.812;7.132;2024-02-21T03:39:20;9.00;;;4.47;;
4106;SDS011;21906;50.812;7.132;2024-02-21T03:41:46;5.23;;;4.10;;
4106;SDS011;21906;50.812;7.132;2024-02-21T03:44:12;6.60;;;4.57;;
4106;SDS011;21906;50.812;7.132;2024-02-21T03:46:38;7.20;;;4.00;;
4106;SDS011;21906;50.812;7.132;2024-02-21T03:49:04;8.07;;;4.13;;
4106;SDS011;21906;50.812;7.132;2024-02-21T03:51:29;4.40;;;3.57;;
4106;SDS011;21906;50.812;7.132;2024-02-21T03:53:55;7.47;;;4.20;;
4106;SDS011;21906;50.812;7.132;2024-02-21T03:56:20;8.40;;;3.90;;
4106;SDS011;21906;50.812;7.132;2024-02-21T03:58:46;5.37;;;3.93;;
4106;SDS011;21906;50.812;7.132;2024-02-21T04:01:14;4.80;;;3.80;;
4106;SDS011;21906;50.812;7.132;2024-02-21T04:03:40;8.23;;;4.20;;
4106;SDS011;21906;50.812;7.132;2024-02-21T04:06:07;7.50;;;4.67;;
4106;SDS011;21906;50.812;7.132;2024-02-21T04:08:33;7.97;;;4.03;;
4106;SDS011;21906;50.812;7.132;2024-02-21T04:10:58;4.57;;;4.10;;
4106;SDS011;21906;50.812;7.132;2024-02-21T04:13:24;8.73;;;5.33;;
4106;SDS011;21906;50.812;7.132;2024-02-21T04:15:50;8.93;;;4.60;;
4106;SDS011;21906;50.812;7.132;2024-02-21T04:18:16;8.30;;;4.70;;
4106;SDS011;21906;50.812;7.132;2024-02-21T04:20:42;12.50;;;4.87;;
4106;SDS011;21906;50.812;7.132;2024-02-21T04:23:07;7.60;;;4.30;;
4106;SDS011;21906;50.812;7.132;2024-02-21T04:25:33;8.20;;;5.10;;
4106;SDS011;21906;50.812;7.132;2024-02-21T04:27:59;9.63;;;4.13;;
4106;SDS011;21906;50.812;7.132;2024-02-21T04:30:24;5.60;;;4.03;;
4106;SDS011;21906;50.812;7.132;2024-02-21T04:32:50;6.80;;;4.23;;
4106;SDS011;21906;50.812;7.132;2024-02-21T04:35:16;5.87;;;4.10;;
4106;SDS011;21906;50.812;7.132;2024-02-21T04:37:41;6.23;;;3.87;;
4106;SDS011;21906;50.812;7.132;2024-02-21T04:40:07;6.80;;;4.30;;
4106;SDS011;21906;50.812;7.132;2024-02-21T04:42:34;5.80;;;3.87;;
4106;SDS011;21906;50.812;7.132;2024-02-21T04:45:00;8.53;;;4.00;;
4106;SDS011;21906;50.812;7.132;2024-02-21T04:47:25;6.93;;;3.97;;
4106;SDS011;21906;50.812;7.132;2024-02-21T04:49:51;7.30;;;4.20;;
4106;SDS011;21906;50.812;7.132;2024-02-21T04:52:17;7.33;;;4.30;;
4106;SDS011;21906;50.812;7.132;2024-02-21T04:54:43;6.37;;;4.00;;
4106;SDS011;21906;50.812;7.132;2024-02-21T04:57:08;5.90;;;3.67;;
4106;SDS011;21906;50.812;7.132;2024-02-21T04:59:35;6.77;;;3.80;;
4106;SDS011;21906;50.812;7.132;2024-02-21T05:02:01;6.00;;;3.93;;
4106;SDS011;21906;50.812;7.132;2024-02-21T05:04:27;5.43;;;4.00;;
4106;SDS011;21906;50.812;7.132;2024-02-21T05:06:53;6.80;;;3.73;;
4106;SDS011;21906;50.812;7.132;2024-02-21T05:09:19;6.37;;;4.33;;
4106;SDS011;21906;50.812;7.132;2024-02-21T05:11:46;7.70;;;4.70;;
4106;SDS011;21906;50.812;7.132;2024-02-21T05:14:11;6.90;;;4.00;;
4106;SDS011;21906;50.812;7.132;2024-02-21T05:16:38;10.40;;;3.90;;
4106;SDS011;21906;50.812;7.132;2024-02-21T05:19:04;6.13;;;3.93;;
4106;SDS011;21906;50.812;7.132;2024-02-21T05:21:30;5.87;;;3.90;;
4106;SDS011;21906;50.812;7.132;2024-02-21T05:23:56;5.20;;;3.77;;
4106;SDS011;21906;50.812;7.132;2024-02-21T05:26:22;6.83;;;3.90;;
4106;SDS011;21906;50.812;7.132;2024-02-21T05:28:49;7.57;;;4.30;;
4106;SDS011;21906;50.812;7.132;2024-02-21T05:31:17;8.90;;;4.50;;
4106;SDS011;21906;50.812;7.132;2024-02-21T05:33:44;5.00;;;3.77;;
4106;SDS011;21906;50.812;7.132;2024-02-21T05:36:09;5.63;;;3.40;;
4106;SDS011;21906;50.812;7.132;2024-02-21T05:38:35;4.30;;;3.90;;
4106;SDS011;21906;50.812;7.132;2024-02-21T05:41:01;5.43;;;4.00;;
4106;SDS011;21906;50.812;7.132;2024-02-21T05:43:27;5.50;;;3.47;;
4106;SDS011;21906;50.812;7.132;2024-02-21T05:45:53;4.80;;;4.10;;
4106;SDS011;21906;50.812;7.132;2024-02-21T05:48:19;6.10;;;3.57;;
4106;SDS011;21906;50.812;7.132;2024-02-21T05:50:45;4.97;;;3.53;;
4106;SDS011;21906;50.812;7.132;2024-02-21T05:53:11;8.07;;;3.57;;
4106;SDS011;21906;50.812;7.132;2024-02-21T05:55:38;5.60;;;3.90;;
4106;SDS011;21906;50.812;7.132;2024-02-21T05:58:04;6.63;;;3.77;;
4106;SDS011;21906;50.812;7.132;2024-02-21T06:00:30;6.63;;;3.70;;
4106;SDS011;21906;50.812;7.132;2024-02-21T06:02:57;6.83;;;4.27;;
4106;SDS011;21906;50.812;7.132;2024-02-21T06:05:25;7.23;;;4.17;;
4106;SDS011;21906;50.812;7.132;2024-02-21T06:07:50;5.43;;;3.50;;
4106;SDS011;21906;50.812;7.132;2024-02-21T06:10:16;5.93;;;3.67;;
4106;SDS011;21906;50.812;7.132;2024-02-21T06:12:42;4.40;;;3.70;;
4106;SDS011;21906;50.812;7.132;2024-02-21T06:15:08;11.90;;;4.20;;
4106;SDS011;21906;50.812;7.132;2024-02-21T06:17:34;6.63;;;3.83;;
4106;SDS011;21906;50.812;7.132;2024-02-21T06:20:00;4.17;;;3.53;;
4106;SDS011;21906;50.812;7.132;2024-02-21T06:22:25;5.40;;;3.50;;
4106;SDS011;21906;50.812;7.132;2024-02-21T06:24:51;8.10;;;3.70;;
4106;SDS011;21906;50.812;7.132;2024-02-21T06:27:19;6.10;;;3.60;;
4106;SDS011;21906;50.812;7.132;2024-02-21T06:29:45;3.80;;;3.20;;
4106;SDS011;21906;50.812;7.132;2024-02-21T06:32:13;4.17;;;3.77;;
4106;SDS011;21906;50.812;7.132;2024-02-21T06:34:38;5.40;;;3.30;;
4106;SDS011;21906;50.812;7.132;2024-02-21T06:37:04;3.87;;;3.40;;
4106;SDS011;21906;50.812;7.132;2024-02-21T06:39:30;5.27;;;3.47;;
4106;SDS011;21906;50.812;7.132;2024-02-21T06:41:55;5.60;;;4.17;;
4106;SDS011;21906;50.812;7.132;2024-02-21T06:44:21;5.50;;;3.10;;
4106;SDS011;21906;50.812;7.132;2024-02-21T06:46:47;4.90;;;3.53;;
4106;SDS011;21906;50.812;7.132;2024-02-21T06:49:13;8.17;;;3.80;;
4106;SDS011;21906;50.812;7.132;2024-02-21T06:51:44;7.87;;;3.93;;
4106;SDS011;21906;50.812;7.132;2024-02-21T06:54:09;4.40;;;3.60;;
4106;SDS011;21906;50.812;7.132;2024-02-21T06:56:36;10.60;;;4.13;;
4106;SDS011;21906;50.812;7.132;2024-02-21T06:59:02;5.80;;;4.03;;
4106;SDS011;21906;50.812;7.132;2024-02-21T07:01:28;7.00;;;3.70;;
4106;SDS011;21906;50.812;7.132;2024-02-21T07:03:57;6.20;;;4.10;;
4106;SDS011;21906;50.812;7.132;2024-02-21T07:06:23;11.90;;;4.40;;
4106;SDS011;21906;50.812;7.132;2024-02-21T07:08:49;9.67;;;4.03;;
4106;SDS011;21906;50.812;7.132;2024-02-21T07:11:15;7.40;;;4.57;;
4106;SDS011;21906;50.812;7.132;2024-02-21T07:13:40;9.77;;;4.50;;
4106;SDS011;21906;50.812;7.132;2024-02-21T07:16:06;6.83;;;4.43;;
4106;SDS011;21906;50.812;7.132;2024-02-21T07:18:33;8.57;;;4.50;;
4106;SDS011;21906;50.812;7.132;2024-02-21T07:20:59;6.43;;;3.97;;
4106;SDS011;21906;50.812;7.132;2024-02-21T07:23:25;6.83;;;3.87;;
4106;SDS011;21906;50.812;7.132;2024-02-21T07:25:50;4.97;;;3.60;;
4106;SDS011;21906;50.812;7.132;2024-02-21T07:28:16;6.17;;;3.97;;
4106;SDS011;21906;50.812;7.132;2024-02-21T07:30:42;8.13;;;4.40;;
4106;SDS011;21906;50.812;7.132;2024-02-21T07:33:08;6.10;;;3.90;;
4106;SDS011;21906;50.812;7.132;2024-02-21T07:35:34;5.97;;;3.87;;
4106;SDS011;21906;50.812;7.132;2024-02-21T07:38:03;5.73;;;3.83;;
4106;SDS011;21906;50.812;7.132;2024-02-21T07:40:30;7.23;;;4.00;;
4106;SDS011;21906;50.812;7.132;2024-02-21T07:42:56;6.17;;;3.70;;
4106;SDS011;21906;50.812;7.132;2024-02-21T07:45:21;5.60;;;3.70;;
4106;SDS011;21906;50.812;7.132;2024-02-21T07:47:49;7.33;;;4.10;;
4106;SDS011;21906;50.812;7.132;2024-02-21T07:50:15;6.10;;;4.13;;
4106;SDS011;21906;50.812;7.132;2024-02-21T07:52:41;5.63;;;3.90;;
4106;SDS011;21906;50.812;7.132;2024-02-21T07:55:07;8.53;;;4.30;;
4106;SDS011;21906;50.812;7.132;2024-02-21T07:57:35;7.63;;;4.47;;
4106;SDS011;21906;50.812;7.132;2024-02-21T08:00:01;6.57;;;4.30;;
4106;SDS011;21906;50.812;7.132;2024-02-21T08:02:27;11.40;;;4.70;;
4106;SDS011;21906;50.812;7.132;2024-02-21T08:04:52;10.67;;;4.30;;
4106;SDS011;21906;50.812;7.132;2024-02-21T08:07:18;10.90;;;4.33;;
4106;SDS011;21906;50.812;7.132;2024-02-21T08:09:44;6.93;;;4.10;;
4106;SDS011;21906;50.812;7.132;2024-02-21T08:12:10;5.53;;;4.00;;
4106;SDS011;21906;50.812;7.132;2024-02-21T08:14:35;6.47;;;3.73;;
4106;SDS011;21906;50.812;7.132;2024-02-21T08:17:01;6.37;;;4.47;;
4106;SDS011;21906;50.812;7.132;2024-02-21T08:19:28;5.70;;;4.10;;
4106;SDS011;21906;50.812;7.132;2024-02-21T08:21:54;6.80;;;3.97;;
4106;SDS011;21906;50.812;7.132;2024-02-21T08:24:20;4.83;;;4.17;;
4106;SDS011;21906;50.812;7.132;2024-02-21T08:26:47;6.40;;;3.50;;
4106;SDS011;21906;50.812;7.132;2024-02-21T08:29:13;5.97;;;4.10;;
4106;SDS011;21906;50.812;7.132;2024-02-21T08:31:39;5.67;;;3.73;;
4106;SDS011;21906;50.812;7.132;2024-02-21T08:34:05;5.70;;;3.70;;
4106;SDS011;21906;50.812;7.132;2024-02-21T08:36:31;8.93;;;4.60;;
4106;SDS011;21906;50.812;7.132;2024-02-21T08:39:00;4.73;;;3.90;;
4106;SDS011;21906;50.812;7.132;2024-02-21T08:41:29;5.03;;;3.87;;
4106;SDS011;21906;50.812;7.132;2024-02-21T08:43:56;7.30;;;4.17;;
4106;SDS011;21906;50.812;7.132;2024-02-21T08:46:22;7.80;;;4.47;;
4106;SDS011;21906;50.812;7.132;2024-02-21T08:48:49;7.97;;;4.30;;
4106;SDS011;21906;50.812;7.132;2024-02-21T08:51:16;8.07;;;4.23;;
4106;SDS011;21906;50.812;7.132;2024-02-21T08:53:45;7.30;;;4.20;;
4106;SDS011;21906;50.812;7.132;2024-02-21T08:56:11;6.20;;;4.13;;
4106;SDS011;21906;50.812;7.132;2024-02-21T08:58:38;6.27;;;4.00;;
4106;SDS011;21906;50.812;7.132;2024-02-21T09:01:05;6.40;;;4.40;;
4106;SDS011;21906;50.812;7.132;2024-02-21T09:03:35;9.70;;;3.80;;
4106;SDS011;21906;50.812;7.132;2024-02-21T09:06:02;6.70;;;3.97;;
4106;SDS011;21906;50.812;7.132;2024-02-21T09:08:28;5.47;;;4.13;;
4106;SDS011;21906;50.812;7.132;2024-02-21T09:10:54;9.40;;;4.07;;
4106;SDS011;21906;50.812;7.132;2024-02-21T09:13:20;6.03;;;3.67;;
4106;SDS011;21906;50.812;7.132;2024-02-21T09:15:46;6.30;;;3.73;;
4106;SDS011;21906;50.812;7.132;2024-02-21T09:18:15;4.83;;;4.23;;
4106;SDS011;21906;50.812;7.132;2024-02-21T09:20:42;4.77;;;3.33;;
4106;SDS011;21906;50.812;7.132;2024-02-21T09:23:08;7.37;;;4.00;;
4106;SDS011;21906;50.812;7.132;2024-02-21T09:25:34;10.30;;;4.53;;
4106;SDS011;21906;50.812;7.132;2024-02-21T09:28:01;7.77;;;4.00;;
4106;SDS011;21906;50.812;7.132;2024-02-21T09:30:27;7.60;;;4.40;;
4106;SDS011;21906;50.812;7.132;2024-02-21T09:32:53;9.90;;;4.47;;
4106;SDS011;21906;50.812;7.132;2024-02-21T09:35:26;7.47;;;3.97;;
4106;SDS011;21906;50.812;7.132;2024-02-21T09:37:55;7.70;;;4.30;;
4106;SDS011;21906;50.812;7.132;2024-02-21T09:40:20;6.93;;;4.50;;
4106;SDS011;21906;50.812;7.132;2024-02-21T09:42:47;5.60;;;4.10;;
4106;SDS011;21906;50.812;7.132;2024-02-21T09:45:23;7.20;;;4.00;;
4106;SDS011;21906;50.812;7.132;2024-02-21T09:50:41;5.27;;;3.50;;
4106;SDS011;21906;50.812;7.132;2024-02-21T09:53:09;10.40;;;5.03;;
4106;SDS011;21906;50.812;7.132;2024-02-21T09:55:37;7.50;;;4.63;;
4106;SDS011;21906;50.812;7.132;2024-02-21T09:58:06;4.40;;;4.00;;
4106;SDS011;21906;50.812;7.132;2024-02-21T10:00:33;7.00;;;3.90;;
4106;SDS011;21906;50.812;7.132;2024-02-21T10:02:59;9.87;;;3.63;;
4106;SDS011;21906;50.812;7.132;2024-02-21T10:05:25;7.50;;;3.83;;
4106;SDS011;21906;50.812;7.132;2024-02-21T10:07:52;4.67;;;3.77;;
4106;SDS011;21906;50.812;7.132;2024-02-21T10:10:19;5.03;;;4.20;;
4106;SDS011;21906;50.812;7.132;2024-02-21T10:12:50;6.70;;;4.07;;
4106;SDS011;21906;50.812;7.132;2024-02-21T10:15:22;9.70;;;4.30;;
4106;SDS011;21906;50.812;7.132;2024-02-21T10:17:59;5.17;;;3.63;;
4106;SDS011;21906;50.812;7.132;2024-02-21T10:20:26;6.43;;;3.70;;
4106;SDS011;21906;50.812;7.132;2024-02-21T10:23:01;6.40;;;3.67;;
4106;SDS011;21906;50.812;7.132;2024-02-21T10:25:34;6.33;;;3.87;;
4106;SDS011;21906;50.812;7.132;2024-02-21T10:28:01;6.13;;;4.07;;
4106;SDS011;21906;50.812;7.132;2024-02-21T10:30:28;6.73;;;4.00;;
4106;SDS011;21906;50.812;7.132;2024-02-21T10:32:54;4.77;;;3.83;;
4106;SDS011;21906;50.812;7.132;2024-02-21T10:35:30;9.93;;;3.73;;
4106;SDS011;21906;50.812;7.132;2024-02-21T10:37:58;4.63;;;3.37;;
4106;SDS011;21906;50.812;7.132;2024-02-21T10:40:28;4.37;;;3.30;;
4106;SDS011;21906;50.812;7.132;2024-02-21T10:42:59;6.50;;;3.90;;
4106;SDS011;21906;50.812;7.132;2024-02-21T10:45:44;5.20;;;3.50;;
4106;SDS011;21906;50.812;7.132;2024-02-21T10:48:15;5.80;;;3.50;;
4106;SDS011;21906;50.812;7.132;2024-02-21T10:50:57;6.30;;;2.93;;
4106;SDS011;21906;50.812;7.132;2024-02-21T10:56:29;4.10;;;3.63;;
4106;SDS011;21906;50.812;7.132;2024-02-21T10:59:05;4.60;;;3.47;;
4106;SDS011;21906;50.812;7.132;2024-02-21T11:01:31;6.53;;;3.50;;
4106;SDS011;21906;50.812;7.132;2024-02-21T11:03:59;6.83;;;3.60;;
4106;SDS011;21906;50.812;7.132;2024-02-21T11:06:29;6.37;;;3.73;;
4106;SDS011;21906;50.812;7.132;2024-02-21T11:09:02;9.33;;;3.47;;
4106;SDS011;21906;50.812;7.132;2024-02-21T11:11:29;5.50;;;3.10;;
4106;SDS011;21906;50.812;7.132;2024-02-21T11:14:10;4.60;;;3.20;;
4106;SDS011;21906;50.812;7.132;2024-02-21T11:16:46;13.07;;;3.90;;
4106;SDS011;21906;50.812;7.132;2024-02-21T11:21:47;6.30;;;3.70;;
4106;SDS011;21906;50.812;7.132;2024-02-21T11:24:14;6.43;;;3.83;;
4106;SDS011;21906;50.812;7.132;2024-02-21T11:26:50;7.27;;;3.97;;
4106;SDS011;21906;50.812;7.132;2024-02-21T11:29:22;5.97;;;3.87;;
4106;SDS011;21906;50.812;7.132;2024-02-21T11:31:50;7.90;;;3.60;;
4106;SDS011;21906;50.812;7.132;2024-02-21T11:34:19;4.97;;;3.43;;
4106;SDS011;21906;50.812;7.132;2024-02-21T11:36:49;6.03;;;3.20;;
4106;SDS011;21906;50.812;7.132;2024-02-21T11:41:45;4.73;;;3.30;;
4106;SDS011;21906;50.812;7.132;2024-02-21T11:44:12;4.57;;;3.50;;
4106;SDS011;21906;50.812;7.132;2024-02-21T11:46:37;5.03;;;3.00;;
4106;SDS011;21906;50.812;7.132;2024-02-21T11:49:03;3.70;;;2.80;;
4106;SDS011;21906;50.812;7.132;2024-02-21T11:51:29;3.10;;;2.90;;
4106;SDS011;21906;50.812;7.132;2024-02-21T11:53:55;4.10;;;3.20;;
4106;SDS011;21906;50.812;7.132;2024-02-21T11:56:20;5.13;;;2.90;;
4106;SDS011;21906;50.812;7.132;2024-02-21T11:58:48;6.43;;;3.57;;
4106;SDS011;21906;50.812;7.132;2024-02-21T12:01:14;5.30;;;3.00;;
4106;SDS011;21906;50.812;7.132;2024-02-21T12:03:41;8.33;;;3.47;;
4106;SDS011;21906;50.812;7.132;2024-02-21T12:06:14;4.27;;;2.90;;
4106;SDS011;21906;50.812;7.132;2024-02-21T12:08:44;4.37;;;2.87;;
4106;SDS011;21906;50.812;7.132;2024-02-21T12:11:18;6.10;;;3.43;;
4106;SDS011;21906;50.812;7.132;2024-02-21T12:13:45;8.20;;;3.50;;
4106;SDS011;21906;50.812;7.132;2024-02-21T12:16:10;6.80;;;3.20;;
4106;SDS011;21906;50.812;7.132;2024-02-21T12:18:36;3.90;;;3.10;;
4106;SDS011;21906;50.812;7.132;2024-02-21T12:21:04;5.50;;;3.57;;
4106;SDS011;21906;50.812;7.132;2024-02-21T12:23:30;5.53;;;3.17;;
4106;SDS011;21906;50.812;7.132;2024-02-21T12:25:56;6.43;;;3.20;;
4106;SDS011;21906;50.812;7.132;2024-02-21T12:28:24;3.00;;;2.80;;
4106;SDS011;21906;50.812;7.132;2024-02-21T12:30:50;6.17;;;3.20;;
4106;SDS011;21906;50.812;7.132;2024-02-21T12:33:17;4.33;;;2.77;;
4106;SDS011;21906;50.812;7.132;2024-02-21T12:35:43;4.80;;;2.73;;
4106;SDS011;21906;50.812;7.132;2024-02-21T12:38:08;7.07;;;3.90;;
4106;SDS011;21906;50.812;7.132;2024-02-21T12:40:34;5.50;;;3.10;;
4106;SDS011;21906;50.812;7.132;2024-02-21T12:43:00;3.90;;;3.10;;
4106;SDS011;21906;50.812;7.132;2024-02-21T12:45:29;3.30;;;3.00;;
4106;SDS011;21906;50.812;7.132;2024-02-21T12:47:56;4.80;;;3.23;;
4106;SDS011;21906;50.812;7.132;2024-02-21T12:50:21;3.70;;;3.20;;
4106;SDS011;21906;50.812;7.132;2024-02-21T12:52:48;6.50;;;2.73;;
4106;SDS011;21906;50.812;7.132;2024-02-21T12:55:15;7.10;;;3.20;;
4106;SDS011;21906;50.812;7.132;2024-02-21T12:57:41;6.07;;;3.57;;
4106;SDS011;21906;50.812;7.132;2024-02-21T13:00:07;3.97;;;3.23;;
4106;SDS011;21906;50.812;7.132;2024-02-21T13:02:34;5.20;;;3.50;;
4106;SDS011;21906;50.812;7.132;2024-02-21T13:05:00;4.17;;;3.50;;
4106;SDS011;21906;50.812;7.132;2024-02-21T13:07:27;7.50;;;3.40;;
4106;SDS011;21906;50.812;7.132;2024-02-21T13:09:59;4.00;;;3.00;;
4106;SDS011;21906;50.812;7.132;2024-02-21T13:12:25;4.83;;;3.33;;
4106;SDS011;21906;50.812;7.132;2024-02-21T13:14:55;3.73;;;3.20;;
4106;SDS011;21906;50.812;7.132;2024-02-21T13:17:20;4.67;;;3.10;;
4106;SDS011;21906;50.812;7.132;2024-02-21T13:19:47;4.50;;;3.50;;
4106;SDS011;21906;50.812;7.132;2024-02-21T13:22:13;5.93;;;3.40;;
4106;SDS011;21906;50.812;7.132;2024-02-21T13:24:40;6.97;;;3.87;;
4106;SDS011;21906;50.812;7.132;2024-02-21T13:27:06;4.03;;;3.50;;
4106;SDS011;21906;50.812;7.132;2024-02-21T13:29:31;7.67;;;3.93;;
4106;SDS011;21906;50.812;7.132;2024-02-21T13:31:57;9.70;;;4.13;;
4106;SDS011;21906;50.812;7.132;2024-02-21T13:34:23;3.70;;;3.40;;
4106;SDS011;21906;50.812;7.132;2024-02-21T13:36:50;6.63;;;3.80;;
4106;SDS011;21906;50.812;7.132;2024-02-21T13:39:16;6.27;;;3.60;;
4106;SDS011;21906;50.812;7.132;2024-02-21T13:41:44;5.67;;;3.90;;
4106;SDS011;21906;50.812;7.132;2024-02-21T13:44:10;3.83;;;3.23;;
4106;SDS011;21906;50.812;7.132;2024-02-21T13:46:37;4.10;;;3.20;;
4106;SDS011;21906;50.812;7.132;2024-02-21T13:49:04;3.20;;;3.00;;
4106;SDS011;21906;50.812;7.132;2024-02-21T13:51:33;3.77;;;3.20;;
4106;SDS011;21906;50.812;7.132;2024-02-21T13:54:03;3.57;;;3.27;;
4106;SDS011;21906;50.812;7.132;2024-02-21T13:56:29;6.50;;;3.30;;
4106;SDS011;21906;50.812;7.132;2024-02-21T13:58:57;3.57;;;3.27;;
4106;SDS011;21906;50.812;7.132;2024-02-21T14:01:25;3.50;;;3.20;;
4106;SDS011;21906;50.812;7.132;2024-02-21T14:03:52;3.43;;;3.10;;
4106;SDS011;21906;50.812;7.132;2024-02-21T14:06:18;5.60;;;3.10;;
4106;SDS011;21906;50.812;7.132;2024-02-21T14:08:44;6.10;;;3.30;;
4106;SDS011;21906;50.812;7.132;2024-02-21T14:11:10;5.80;;;3.53;;
4106;SDS011;21906;50.812;7.132;2024-02-21T14:13:36;3.90;;;3.57;;
4106;SDS011;21906;50.812;7.132;2024-02-21T14:16:02;5.33;;;3.20;;
4106;SDS011;21906;50.812;7.132;2024-02-21T14:18:28;3.40;;;2.83;;
4106;SDS011;21906;50.812;7.132;2024-02-21T14:20:54;4.53;;;3.10;;
4106;SDS011;21906;50.812;7.132;2024-02-21T14:23:20;6.47;;;3.03;;
4106;SDS011;21906;50.812;7.132;2024-02-21T14:25:46;5.77;;;3.23;;
4106;SDS011;21906;50.812;7.132;2024-02-21T14:28:12;5.03;;;2.87;;
4106;SDS011;21906;50.812;7.132;2024-02-21T14:30:38;9.27;;;3.60;;
4106;SDS011;21906;50.812;7.132;2024-02-21T14:33:03;3.37;;;3.03;;
4106;SDS011;21906;50.812;7.132;2024-02-21T14:35:29;4.77;;;3.13;;
4106;SDS011;21906;50.812;7.132;2024-02-21T14:37:55;3.97;;;2.97;;
4106;SDS011;21906;50.812;7.132;2024-02-21T14:40:22;6.30;;;3.70;;
4106;SDS011;21906;50.812;7.132;2024-02-21T14:42:48;5.10;;;2.57;;
4106;SDS011;21906;50.812;7.132;2024-02-21T14:45:14;3.90;;;3.00;;
4106;SDS011;21906;50.812;7.132;2024-02-21T14:47:42;7.03;;;3.13;;
4106;SDS011;21906;50.812;7.132;2024-02-21T14:50:08;4.60;;;3.17;;
4106;SDS011;21906;50.812;7.132;2024-02-21T14:52:34;7.00;;;3.17;;
4106;SDS011;21906;50.812;7.132;2024-02-21T14:55:01;7.63;;;3.00;;
4106;SDS011;21906;50.812;7.132;2024-02-21T14:57:28;3.73;;;2.93;;
4106;SDS011;21906;50.812;7.132;2024-02-21T14:59:54;5.57;;;3.03;;
4106;SDS011;21906;50.812;7.132;2024-02-21T15:02:24;5.23;;;2.80;;
4106;SDS011;21906;50.812;7.132;2024-02-21T15:04:50;4.47;;;2.97;;
4106;SDS011;21906;50.812;7.132;2024-02-21T15:07:16;5.50;;;2.80;;
4106;SDS011;21906;50.812;7.132;2024-02-21T15:09:42;6.03;;;2.83;;